createdAt,value
2016-05-05T00:00:56.823Z,65.37
2016-05-05T00:01:56.873Z,65.43
2016-05-05T00:02:56.906Z,65.47
2016-05-05T00:03:56.956Z,65.47
2016-05-05T00:04:56.989Z,65.17
2016-05-05T00:05:57.024Z,65.17
2016-05-05T00:06:57.073Z,65.56
2016-05-05T00:07:57.107Z,65.47
2016-05-05T00:08:57.423Z,65.27
2016-05-05T00:09:57.191Z,65.47
2016-05-05T00:10:57.225Z,65.56
2016-05-05T00:11:57.274Z,65.66
2016-05-05T00:12:57.308Z,65.56
2016-05-05T00:13:57.342Z,65.56
2016-05-05T00:14:57.391Z,65.66
2016-05-05T00:15:57.426Z,65.85
2016-05-05T00:16:57.474Z,65.47
2016-05-05T00:17:57.510Z,65.47
2016-05-05T00:18:57.543Z,65.75
2016-05-05T00:19:57.593Z,65.85
2016-05-05T00:20:57.627Z,65.85
2016-05-05T00:21:57.660Z,65.95
2016-05-05T00:22:57.710Z,65.85
2016-05-05T00:23:57.744Z,65.85
2016-05-05T00:24:57.793Z,66.04
2016-05-05T00:25:57.828Z,65.95
2016-05-05T00:26:57.877Z,65.95
2016-05-05T00:27:57.911Z,66.04
2016-05-05T00:28:57.945Z,66.04
2016-05-05T00:29:57.978Z,66.52
2016-05-05T00:30:58.029Z,66.52
2016-05-05T00:31:58.062Z,66.33
2016-05-05T00:32:58.111Z,66.33
2016-05-05T00:33:58.146Z,66.33
2016-05-05T00:34:58.195Z,66.33
2016-05-05T00:35:58.230Z,66.33
2016-05-05T00:36:58.264Z,66.43
2016-05-05T00:37:58.313Z,66.24
2016-05-05T00:38:58.347Z,66.52
2016-05-05T00:39:58.380Z,66.72
2016-05-05T00:40:58.430Z,66.33
2016-05-05T00:41:58.464Z,66.52
2016-05-05T00:42:58.514Z,66.39
2016-05-05T00:43:58.547Z,66.52
2016-05-05T00:44:58.582Z,66.43
2016-05-05T00:45:58.631Z,66.33
2016-05-05T00:46:58.666Z,66.82
2016-05-05T00:47:58.699Z,66.62
2016-05-05T00:48:58.749Z,66.52
2016-05-05T00:49:58.782Z,66.43
2016-05-05T00:50:58.833Z,66.43
2016-05-05T00:51:58.866Z,66.43
2016-05-05T00:52:58.916Z,66.43
2016-05-05T00:53:58.949Z,66.82
2016-05-05T00:54:58.984Z,66.62
2016-05-05T00:55:59.034Z,66.52
2016-05-05T00:56:59.068Z,66.72
2016-05-05T00:57:59.102Z,66.52
2016-05-05T00:58:59.151Z,66.78
2016-05-05T00:59:59.184Z,66.82
2016-05-05T01:00:59.234Z,66.72
2016-05-05T01:01:59.268Z,66.72
2016-05-05T01:02:59.302Z,67
2016-05-05T01:03:59.351Z,66.82
2016-05-05T01:04:59.386Z,66.82
2016-05-05T01:05:59.420Z,66.91
2016-05-05T01:06:59.469Z,66.72
2016-05-05T01:07:59.503Z,67
2016-05-05T01:08:59.552Z,67.1
2016-05-05T01:09:59.586Z,67
2016-05-05T01:10:59.620Z,67.2
2016-05-05T01:11:59.669Z,67.2
2016-05-05T01:12:59.704Z,66.91
2016-05-05T01:13:59.753Z,66.91
2016-05-05T01:14:59.788Z,67.1
2016-05-05T01:15:59.822Z,67
2016-05-05T01:16:59.871Z,67.1
2016-05-05T01:17:59.905Z,67
2016-05-05T01:18:59.954Z,67
2016-05-05T01:19:59.988Z,67.4
2016-05-05T01:21:00.022Z,67.49
2016-05-05T01:22:00.072Z,67.3
2016-05-05T01:23:00.106Z,67.4
2016-05-05T01:24:00.405Z,67
2016-05-05T01:25:00.205Z,67
2016-05-05T01:26:00.224Z,67.1
2016-05-05T01:27:00.273Z,67.2
2016-05-05T01:28:00.307Z,67.1
2016-05-05T01:29:00.340Z,67.3
2016-05-05T01:30:00.390Z,67.2
2016-05-05T01:31:00.424Z,67.1
2016-05-05T01:32:00.459Z,66.97
2016-05-05T01:33:00.508Z,67.58
2016-05-05T01:34:00.542Z,67.3
2016-05-05T01:35:00.592Z,67.49
2016-05-05T01:36:00.626Z,67.49
2016-05-05T01:37:00.659Z,67.58
2016-05-05T01:38:00.709Z,67.58
2016-05-05T01:39:01.180Z,67.3
2016-05-05T01:40:00.777Z,67.36
2016-05-05T01:41:00.826Z,67.36
2016-05-05T01:42:00.861Z,67.49
2016-05-05T01:43:00.910Z,67.3
2016-05-05T01:44:00.944Z,67.4
2016-05-05T01:45:00.978Z,67.2
2016-05-05T01:46:01.027Z,67.3
2016-05-05T01:47:01.060Z,67.3
2016-05-05T01:48:01.110Z,67.4
2016-05-05T01:49:01.144Z,67
2016-05-05T01:50:01.179Z,67.2
2016-05-05T01:51:01.228Z,67.16
2016-05-05T01:52:01.283Z,67.26
2016-05-05T01:53:01.359Z,67.3
2016-05-05T01:54:02.374Z,67.36
2016-05-05T01:55:01.544Z,67.1
2016-05-05T01:56:01.604Z,67.1
2016-05-05T01:57:01.683Z,67.2
2016-05-05T01:58:01.732Z,67.16
2016-05-05T01:59:01.797Z,67.2
2016-05-05T02:00:01.847Z,67.49
2016-05-05T02:01:01.912Z,67.3
2016-05-05T02:02:01.957Z,67.2
2016-05-05T02:03:02.028Z,67.16
2016-05-05T02:04:02.051Z,67.1
2016-05-05T02:05:02.092Z,67.4
2016-05-05T02:06:02.147Z,67.4
2016-05-05T02:07:02.184Z,67.4
2016-05-05T02:08:02.220Z,67.2
2016-05-05T02:09:03.022Z,67.2
2016-05-05T02:10:02.308Z,67.3
2016-05-05T02:11:02.343Z,67.4
2016-05-05T02:12:02.395Z,67.3
2016-05-05T02:13:02.430Z,67.3
2016-05-05T02:14:02.479Z,67.58
2016-05-05T02:15:02.515Z,67.49
2016-05-05T02:16:02.548Z,67.58
2016-05-05T02:17:02.599Z,67.4
2016-05-05T02:18:02.633Z,67.2
2016-05-05T02:19:02.668Z,67.1
2016-05-05T02:20:02.718Z,67.3
2016-05-05T02:21:02.752Z,67.3
2016-05-05T02:22:02.787Z,67.1
2016-05-05T02:23:02.838Z,67.3
2016-05-05T02:24:02.871Z,67.1
2016-05-05T02:25:02.905Z,67.1
2016-05-05T02:26:02.954Z,67.2
2016-05-05T02:27:02.989Z,67.4
2016-05-05T02:28:03.038Z,67.4
2016-05-05T02:29:03.073Z,67
2016-05-05T02:30:03.107Z,67.1
2016-05-05T02:31:03.156Z,67.1
2016-05-05T02:32:03.190Z,67.1
2016-05-05T02:33:03.239Z,67.2
2016-05-05T02:34:03.273Z,67.2
2016-05-05T02:35:03.307Z,67.1
2016-05-05T02:36:03.356Z,67.1
2016-05-05T02:37:03.391Z,67
2016-05-05T02:38:03.440Z,66.91
2016-05-05T02:39:03.475Z,67
2016-05-05T02:40:03.509Z,66.91
2016-05-05T02:41:03.542Z,66.91
2016-05-05T02:42:03.592Z,66.94
2016-05-05T02:43:03.625Z,67
2016-05-05T02:44:03.676Z,67.2
2016-05-05T02:45:03.709Z,67.3
2016-05-05T02:46:03.758Z,66.94
2016-05-05T02:47:03.793Z,67.04
2016-05-05T02:48:03.827Z,67
2016-05-05T02:49:03.876Z,67.23
2016-05-05T02:50:03.911Z,67.14
2016-05-05T02:51:03.944Z,67.1
2016-05-05T02:52:03.994Z,67.14
2016-05-05T02:53:04.027Z,67.14
2016-05-05T02:54:04.077Z,67.14
2016-05-05T02:55:04.111Z,67.14
2016-05-05T02:56:04.146Z,67.14
2016-05-05T02:57:04.195Z,67.14
2016-05-05T02:58:04.244Z,67.04
2016-05-05T02:59:04.279Z,67.23
2016-05-05T03:00:04.313Z,67.14
2016-05-05T03:01:04.346Z,67.14
2016-05-05T03:02:04.396Z,67.14
2016-05-05T03:03:04.429Z,67.04
2016-05-05T03:04:04.464Z,67.33
2016-05-05T03:05:04.513Z,67.14
2016-05-05T03:06:04.547Z,66.94
2016-05-05T03:07:04.597Z,66.94
2016-05-05T03:08:04.631Z,67.14
2016-05-05T03:09:04.681Z,67.14
2016-05-05T03:10:04.714Z,67.23
2016-05-05T03:11:04.747Z,67.14
2016-05-05T03:12:04.797Z,67.23
2016-05-05T03:13:04.831Z,66.94
2016-05-05T03:14:04.866Z,67.04
2016-05-05T03:15:04.914Z,66.94
2016-05-05T03:16:04.949Z,66.94
2016-05-05T03:17:04.999Z,67.04
2016-05-05T03:18:05.033Z,66.94
2016-05-05T03:19:05.067Z,66.94
2016-05-05T03:20:05.116Z,66.94
2016-05-05T03:21:05.149Z,67.14
2016-05-05T03:22:05.199Z,67.04
2016-05-05T03:23:05.233Z,67.04
2016-05-05T03:24:05.736Z,67.14
2016-05-05T03:25:05.333Z,66.94
2016-05-05T03:26:05.351Z,67.23
2016-05-05T03:27:05.401Z,67.23
2016-05-05T03:28:05.434Z,67.14
2016-05-05T03:29:05.469Z,67.23
2016-05-05T03:30:05.518Z,67.23
2016-05-05T03:31:05.551Z,67.14
2016-05-05T03:32:05.585Z,67.04
2016-05-05T03:33:05.635Z,67.04
2016-05-05T03:34:05.670Z,67.14
2016-05-05T03:35:05.719Z,67.14
2016-05-05T03:36:05.753Z,67.14
2016-05-05T03:37:05.803Z,67.14
2016-05-05T03:38:05.837Z,67.23
2016-05-05T03:39:05.901Z,67.43
2016-05-05T03:40:05.920Z,67.23
2016-05-05T03:41:05.953Z,67.23
2016-05-05T03:42:05.987Z,67.43
2016-05-05T03:43:06.037Z,67.33
2016-05-05T03:44:06.072Z,67.14
2016-05-05T03:45:06.120Z,67.33
2016-05-05T03:46:06.155Z,67.43
2016-05-05T03:47:06.189Z,67.14
2016-05-05T03:48:06.239Z,67.43
2016-05-05T03:49:06.272Z,67.04
2016-05-05T03:50:06.321Z,67.04
2016-05-05T03:51:06.355Z,67.04
2016-05-05T03:52:06.389Z,67.52
2016-05-05T03:53:06.438Z,67.14
2016-05-05T03:54:06.598Z,67.23
2016-05-05T03:55:06.522Z,67.23
2016-05-05T03:56:06.557Z,67.14
2016-05-05T03:57:06.591Z,67.04
2016-05-05T03:58:06.640Z,67.23
2016-05-05T03:59:06.674Z,67.33
2016-05-05T04:00:06.723Z,66.85
2016-05-05T04:01:06.757Z,67.14
2016-05-05T04:02:06.791Z,67.23
2016-05-05T04:03:06.840Z,67.04
2016-05-05T04:04:06.875Z,67.04
2016-05-05T04:05:06.924Z,67.14
2016-05-05T04:06:06.959Z,67.33
2016-05-05T04:07:06.993Z,67.14
2016-05-05T04:08:07.042Z,67.33
2016-05-05T04:09:07.076Z,67.33
2016-05-05T04:10:07.109Z,67.04
2016-05-05T04:11:07.159Z,67.23
2016-05-05T04:12:07.193Z,67.14
2016-05-05T04:13:07.243Z,67.14
2016-05-05T04:14:07.277Z,67.14
2016-05-05T04:15:07.311Z,67.14
2016-05-05T04:16:07.361Z,67.14
2016-05-05T04:17:07.395Z,67.23
2016-05-05T04:18:07.444Z,67.43
2016-05-05T04:19:07.478Z,67.52
2016-05-05T04:20:07.511Z,67.43
2016-05-05T04:21:07.561Z,67.62
2016-05-05T04:22:07.595Z,67.62
2016-05-05T04:23:07.644Z,67.62
2016-05-05T04:24:07.679Z,67.52
2016-05-05T04:25:07.713Z,67.62
2016-05-05T04:26:07.763Z,67.33
2016-05-05T04:27:07.797Z,67.33
2016-05-05T04:28:07.846Z,67.33
2016-05-05T04:29:07.880Z,67.43
2016-05-05T04:30:07.913Z,67.52
2016-05-05T04:31:07.963Z,67.23
2016-05-05T20:55:47.404Z,63.15
2016-05-05T20:56:47.406Z,63.21
2016-05-05T20:57:47.440Z,63.24
2016-05-05T20:58:47.474Z,63.15
2016-05-05T20:59:47.524Z,63.24
2016-05-05T21:00:47.559Z,63.44
2016-05-05T21:01:47.592Z,63.54
2016-05-05T21:02:47.642Z,63.31
2016-05-05T21:03:47.675Z,63.24
2016-05-05T21:04:47.709Z,63.24
2016-05-05T21:05:47.758Z,63.44
2016-05-05T21:06:47.793Z,63.31
2016-05-05T21:07:47.842Z,63.15
2016-05-05T21:08:47.876Z,63.54
2016-05-05T21:09:47.910Z,63.34
2016-05-05T21:10:47.944Z,63.82
2016-05-05T21:11:47.994Z,63.15
2016-05-05T21:12:48.028Z,63.06
2016-05-05T21:13:48.077Z,62.96
2016-05-05T21:14:48.111Z,63.15
2016-05-05T21:15:48.161Z,63.82
2016-05-05T21:16:48.194Z,63.34
2016-05-05T21:17:48.229Z,63.15
2016-05-05T21:18:48.278Z,63.92
2016-05-05T21:19:48.312Z,63.54
2016-05-05T21:20:48.346Z,63.54
2016-05-05T21:21:48.396Z,63.44
2016-05-05T21:22:48.429Z,63.44
2016-05-05T21:23:48.463Z,63.54
2016-05-05T21:24:48.513Z,63.54
2016-05-05T21:25:48.546Z,63.82
2016-05-05T21:26:48.581Z,63.73
2016-05-05T21:27:48.631Z,63.82
2016-05-05T21:28:48.665Z,63.92
2016-05-05T21:29:48.714Z,64.11
2016-05-05T21:30:48.748Z,64.11
2016-05-05T21:31:48.781Z,64.21
2016-05-05T21:32:48.832Z,64.02
2016-05-05T21:33:48.865Z,64.02
2016-05-05T21:34:48.900Z,64.02
2016-05-05T21:35:48.948Z,64.02
2016-05-05T21:36:48.983Z,64.02
2016-05-05T21:37:49.033Z,63.54
2016-05-05T21:38:49.066Z,64.02
2016-05-05T21:39:49.116Z,63.73
2016-05-05T21:40:49.150Z,64.02
2016-05-05T21:41:49.200Z,64.02
2016-05-05T21:42:49.234Z,63.82
2016-05-05T21:43:49.267Z,63.73
2016-05-05T21:44:49.301Z,63.92
2016-05-05T21:45:49.350Z,63.82
2016-05-05T21:46:49.385Z,63.82
2016-05-05T21:47:49.435Z,63.63
2016-05-05T21:48:49.468Z,63.92
2016-05-05T21:49:49.502Z,63.54
2016-05-05T21:50:49.552Z,63.82
2016-05-05T21:51:49.585Z,63.92
2016-05-05T21:52:49.635Z,63.92
2016-05-05T21:53:49.669Z,63.92
2016-05-05T21:54:49.719Z,64.02
2016-05-05T21:55:49.987Z,63.92
2016-05-05T21:56:49.787Z,63.92
2016-05-05T21:57:49.837Z,64.02
2016-05-05T21:58:49.871Z,64.11
2016-05-05T21:59:49.904Z,64.11
2016-05-05T22:00:49.954Z,63.92
2016-05-05T22:01:49.988Z,64.11
2016-05-05T22:02:50.021Z,64.02
2016-05-05T22:03:50.071Z,64.11
2016-05-05T22:04:50.106Z,64.21
2016-05-05T22:05:50.139Z,64.21
2016-05-05T22:06:50.189Z,64.21
2016-05-05T22:07:50.239Z,64.21
2016-05-05T22:08:50.273Z,64.11
2016-05-05T22:09:50.306Z,64.11
2016-05-05T22:10:50.355Z,64.21
2016-05-05T22:11:50.390Z,64.11
2016-05-05T22:12:50.424Z,64.11
2016-05-05T22:13:50.473Z,64.21
2016-05-05T22:14:50.507Z,64.4
2016-05-05T22:15:50.557Z,64.4
2016-05-05T22:16:50.591Z,64.5
2016-05-05T22:17:50.624Z,64.4
2016-05-05T22:18:50.674Z,64.4
2016-05-05T22:19:50.708Z,64.5
2016-05-05T22:20:50.741Z,64.5
2016-05-05T22:21:50.791Z,64.5
2016-05-05T22:22:50.834Z,64.4
2016-05-05T22:23:50.873Z,64.5
2016-05-05T22:24:50.922Z,64.4
2016-05-05T22:25:51.363Z,64.5
2016-05-05T22:26:50.991Z,64.79
2016-05-05T22:27:51.024Z,64.59
2016-05-05T22:28:51.074Z,64.59
2016-05-05T22:29:51.108Z,64.5
2016-05-05T22:30:51.158Z,65.27
2016-05-05T22:31:51.191Z,65.27
2016-05-05T22:32:51.225Z,65.08
2016-05-05T22:33:51.275Z,65.08
2016-05-05T22:34:51.309Z,65.08
2016-05-05T22:35:51.343Z,65.17
2016-05-05T22:36:51.393Z,64.69
2016-05-05T22:37:51.426Z,64.79
2016-05-05T22:38:51.477Z,64.98
2016-05-05T22:39:51.510Z,64.59
2016-05-05T22:40:51.559Z,64.69
2016-05-05T22:41:51.594Z,64.59
2016-05-05T22:42:51.627Z,65.08
2016-05-05T22:43:51.676Z,65.08
2016-05-05T22:44:51.712Z,64.89
2016-05-05T22:45:51.745Z,64.69
2016-05-05T22:46:51.794Z,64.69
2016-05-05T22:47:51.829Z,64.72
2016-05-05T22:48:51.878Z,64.79
2016-05-05T22:49:51.912Z,64.89
2016-05-05T22:50:51.945Z,64.79
2016-05-05T22:51:51.996Z,64.98
2016-05-05T22:52:52.029Z,65.4
2016-05-05T22:53:52.079Z,65.47
2016-05-05T22:54:52.114Z,65.5
2016-05-05T22:55:52.147Z,65.47
2016-05-05T22:56:52.197Z,65.4
2016-05-05T22:57:52.247Z,65.2
2016-05-05T22:58:52.280Z,65.27
2016-05-05T22:59:52.314Z,65.2
2016-05-05T23:00:52.348Z,65.37
2016-05-05T23:01:52.397Z,65.27
2016-05-05T23:02:52.431Z,65.59
2016-05-05T23:03:52.481Z,65.27
2016-05-05T23:04:52.515Z,65.5
2016-05-05T23:05:52.563Z,65.56
2016-05-05T23:06:52.599Z,65.59
2016-05-05T23:07:52.632Z,65.47
2016-05-05T23:08:52.682Z,65.5
2016-05-05T23:09:52.716Z,65.56
2016-05-05T23:10:52.765Z,65.5
2016-05-05T23:11:52.799Z,65.69
2016-05-05T23:12:52.833Z,65.69
2016-05-05T23:13:52.882Z,65.98
2016-05-05T23:14:52.917Z,65.59
2016-05-05T23:15:52.951Z,65.59
2016-05-05T23:16:53.001Z,65.98
2016-05-05T23:17:53.034Z,65.78
2016-05-05T23:18:53.068Z,65.78
2016-05-05T23:19:53.118Z,65.88
2016-05-05T23:20:53.151Z,66.08
2016-05-05T23:21:53.201Z,65.88
2016-05-05T23:22:53.235Z,66.17
2016-05-05T23:23:53.284Z,66.08
2016-05-05T23:24:53.319Z,66.27
2016-05-05T23:25:53.509Z,65.78
2016-05-05T23:26:53.402Z,65.88
2016-05-05T23:27:53.437Z,66.66
2016-05-05T23:28:53.486Z,66.46
2016-05-05T23:29:53.519Z,66.36
2016-05-05T23:30:53.553Z,66.27
2016-05-05T23:31:53.603Z,66.36
2016-05-05T23:32:53.636Z,66.46
2016-05-05T23:33:53.687Z,66.36
2016-05-05T23:34:53.721Z,66.36
2016-05-05T23:35:53.755Z,66.36
2016-05-05T23:36:53.804Z,66.17
2016-05-05T23:37:53.838Z,66.27
2016-05-05T23:38:53.888Z,66.27
2016-05-05T23:39:53.922Z,66.56
2016-05-05T23:40:53.955Z,66.56
2016-05-05T23:41:54.005Z,66.66
2016-05-05T23:42:54.038Z,66.36
2016-05-05T23:43:54.088Z,66.46
2016-05-05T23:44:54.124Z,66.56
2016-05-05T23:45:54.156Z,66.46
2016-05-05T23:46:54.207Z,66.36
2016-05-05T23:47:54.240Z,66.56
2016-05-05T23:48:54.304Z,66.56
2016-05-05T23:49:54.323Z,66.66
2016-05-05T23:50:54.358Z,66.46
2016-05-05T23:51:54.407Z,66.72
2016-05-05T23:52:54.440Z,66.85
2016-05-05T23:53:54.490Z,66.85
2016-05-05T23:54:54.525Z,66.66
2016-05-05T23:55:54.574Z,66.75
2016-05-05T23:56:54.608Z,66.66
2016-05-05T23:57:54.642Z,66.46
2016-05-05T23:58:54.675Z,66.46
2016-05-05T23:59:54.726Z,66.46
